Terminal Aerodrome Forecast
Issued by NWS

Home | Current Version | Previous Version | Text Only | Print | Product List | Glossary On
Versions: 1 2 3 4 5 6 7 8 9 10 11 12
000
FTPQ31 PGUM 230529
TAFTYA
TAF
PTYA 230529Z 2306/2406 08005KT P6SM VCSH SCT016 SCT030
      TEMPO 2306/2308 4SM SHRA SCT016 OVC030=

USA.gov is the U.S. government's official web portal to all federal, state and local government web resources and services.